createdAt,value
2019-01-18T00:00:04.444Z,1004.98
2019-01-18T00:01:04.465Z,1004.95
2019-01-18T00:02:04.484Z,1005.05
2019-01-18T00:03:04.514Z,1005.04
2019-01-18T00:04:04.529Z,1004.96
2019-01-18T00:05:04.550Z,1004.95
2019-01-18T00:06:04.573Z,1004.98
2019-01-18T00:07:04.589Z,1004.95
2019-01-18T00:08:04.615Z,1005.02
2019-01-18T00:09:04.633Z,1005.05
2019-01-18T00:10:04.657Z,1005.06
2019-01-18T00:11:04.675Z,1005.11
2019-01-18T00:12:04.696Z,1005.11
2019-01-18T00:13:04.718Z,1005.12
2019-01-18T00:14:04.739Z,1005.17
2019-01-18T00:15:04.762Z,1005.18
2019-01-18T00:16:04.784Z,1005.15
2019-01-18T00:17:04.806Z,1005.19
2019-01-18T00:18:04.833Z,1005.26
2019-01-18T00:19:04.847Z,1005.18
2019-01-18T00:20:04.866Z,1005.22
2019-01-18T00:21:04.902Z,1005.26
2019-01-18T00:22:04.909Z,1005.30
2019-01-18T00:23:04.930Z,1005.33
2019-01-18T00:24:04.954Z,1005.39
2019-01-18T00:25:04.975Z,1005.40
2019-01-18T00:26:04.997Z,1005.43
2019-01-18T00:27:05.016Z,1005.45
2019-01-18T00:28:05.039Z,1005.43
2019-01-18T00:29:05.060Z,1005.54
2019-01-18T00:30:05.079Z,1005.55
2019-01-18T00:31:05.118Z,1005.56
2019-01-18T00:32:05.124Z,1005.56
2019-01-18T00:33:05.144Z,1005.51
2019-01-18T00:34:05.169Z,1005.56
2019-01-18T00:35:05.188Z,1005.58
2019-01-18T00:36:05.210Z,1005.58
2019-01-18T00:37:05.236Z,1005.58
2019-01-18T00:38:05.250Z,1005.57
2019-01-18T00:39:05.288Z,1005.59
2019-01-18T00:40:05.292Z,1005.59
2019-01-18T00:41:05.315Z,1005.64
2019-01-18T00:42:05.338Z,1005.64
2019-01-18T00:43:05.358Z,1005.62
2019-01-18T00:44:05.377Z,1005.63
2019-01-18T00:45:05.409Z,1005.69
2019-01-18T00:46:05.421Z,1005.64
2019-01-18T00:47:05.443Z,1005.73
2019-01-18T00:48:05.465Z,1005.78
2019-01-18T00:49:05.486Z,1005.83
2019-01-18T00:50:05.520Z,1005.85
2019-01-18T00:51:05.529Z,1005.84
2019-01-18T00:52:05.547Z,1005.86
2019-01-18T00:53:05.568Z,1005.87
2019-01-18T00:54:05.591Z,1005.92
2019-01-18T00:55:05.614Z,1005.90
2019-01-18T00:56:05.636Z,1005.93
2019-01-18T00:57:05.657Z,1005.91
2019-01-18T00:58:05.679Z,1005.93
2019-01-18T00:59:05.699Z,1005.93
2019-01-18T01:00:05.721Z,1005.98
2019-01-18T01:01:05.740Z,1005.97
2019-01-18T01:02:05.764Z,1005.97
2019-01-18T01:03:05.781Z,1005.96
2019-01-18T01:04:05.806Z,1005.98
2019-01-18T01:05:05.831Z,1005.98
2019-01-18T01:06:05.847Z,1006.01
2019-01-18T01:07:05.880Z,1006.02
2019-01-18T01:08:05.890Z,1006.06
2019-01-18T01:09:05.913Z,1006.17
2019-01-18T01:10:05.937Z,1006.11
2019-01-18T01:11:05.953Z,1006.19
2019-01-18T01:12:05.976Z,1006.21
2019-01-18T01:13:06.043Z,1006.20
2019-01-18T01:14:06.017Z,1006.20
2019-01-18T01:15:06.036Z,1006.29
2019-01-18T01:16:06.058Z,1006.25
2019-01-18T01:17:06.084Z,1006.32
2019-01-18T01:18:06.101Z,1006.41
2019-01-18T01:19:06.122Z,1006.46
2019-01-18T01:20:06.146Z,1006.51
2019-01-18T01:21:06.167Z,1006.48
2019-01-18T01:22:06.189Z,1006.51
2019-01-18T01:23:06.210Z,1006.53
2019-01-18T01:24:06.230Z,1006.56
2019-01-18T01:25:06.252Z,1006.56
2019-01-18T01:26:06.271Z,1006.61
2019-01-18T01:27:06.295Z,1006.67
2019-01-18T01:28:06.313Z,1006.73
2019-01-18T01:29:06.336Z,1006.75
2019-01-18T01:30:06.358Z,1006.77
2019-01-18T01:31:06.379Z,1006.79
2019-01-18T01:32:06.413Z,1006.79
2019-01-18T01:33:06.419Z,1006.86
2019-01-18T01:34:06.443Z,1006.94
2019-01-18T01:35:06.462Z,1006.89
2019-01-18T01:36:06.485Z,1006.91
2019-01-18T01:37:06.508Z,1006.95
2019-01-18T01:38:06.529Z,1006.94
2019-01-18T01:39:06.549Z,1007.03
2019-01-18T01:40:06.570Z,1007.05
2019-01-18T01:41:06.591Z,1007.03
2019-01-18T01:42:06.611Z,1007.08
2019-01-18T01:43:06.649Z,1007.05
2019-01-18T01:44:06.667Z,1007.08
2019-01-18T01:45:06.676Z,1007.15
2019-01-18T01:46:06.699Z,1007.20
2019-01-18T01:47:06.715Z,1007.22
2019-01-18T01:48:06.741Z,1007.22
2019-01-18T01:49:06.773Z,1007.21
2019-01-18T01:50:06.783Z,1007.25
2019-01-18T01:51:06.803Z,1007.29
2019-01-18T01:52:06.824Z,1007.29
2019-01-18T01:53:06.843Z,1007.33
2019-01-18T01:54:06.871Z,1007.29
2019-01-18T01:55:06.893Z,1007.35
2019-01-18T01:56:06.907Z,1007.33
2019-01-18T01:57:06.933Z,1007.33
2019-01-18T01:58:06.949Z,1007.35
2019-01-18T01:59:06.973Z,1007.41
2019-01-18T02:00:06.997Z,1007.43
2019-01-18T02:01:07.012Z,1007.42
2019-01-18T02:02:07.037Z,1007.47
2019-01-18T02:03:07.059Z,1007.46
2019-01-18T02:04:07.079Z,1007.46
2019-01-18T02:05:07.099Z,1007.50
2019-01-18T02:06:07.123Z,1007.51
2019-01-18T02:07:07.139Z,1007.50
2019-01-18T02:08:07.161Z,1007.51
2019-01-18T02:09:07.185Z,1007.51
2019-01-18T02:10:07.206Z,1007.55
2019-01-18T02:11:07.237Z,1007.55
2019-01-18T02:12:07.247Z,1007.58
2019-01-18T02:13:07.267Z,1007.65
2019-01-18T02:14:07.292Z,1007.62
2019-01-18T02:15:07.309Z,1007.64
2019-01-18T02:16:07.343Z,1007.69
2019-01-18T02:17:07.354Z,1007.67
2019-01-18T02:18:07.382Z,1007.73
2019-01-18T02:19:07.395Z,1007.74
2019-01-18T02:20:07.415Z,1007.78
2019-01-18T02:21:07.438Z,1007.83
2019-01-18T02:22:07.471Z,1007.90
2019-01-18T02:23:07.479Z,1007.91
2019-01-18T02:24:07.497Z,1007.94
2019-01-18T02:25:07.521Z,1007.95
2019-01-18T02:26:07.541Z,1007.96
2019-01-18T02:27:07.561Z,1008.02
2019-01-18T02:28:07.585Z,1008.05
2019-01-18T02:29:07.606Z,1008.06
2019-01-18T02:30:07.629Z,1008.06
2019-01-18T02:31:07.649Z,1008.04
2019-01-18T02:32:07.681Z,1008.10
2019-01-18T02:33:07.690Z,1008.11
2019-01-18T02:34:07.709Z,1008.11
2019-01-18T02:35:07.731Z,1008.15
2019-01-18T02:36:07.753Z,1008.11
2019-01-18T02:37:07.773Z,1008.14
2019-01-18T02:38:07.807Z,1008.15
2019-01-18T02:39:07.817Z,1008.12
2019-01-18T02:40:07.839Z,1008.12
2019-01-18T02:41:07.856Z,1008.19
2019-01-18T02:42:07.878Z,1008.18
2019-01-18T02:43:07.902Z,1008.19
2019-01-18T02:44:07.919Z,1008.22
2019-01-18T02:45:07.940Z,1008.14
2019-01-18T02:46:07.962Z,1008.15
2019-01-18T02:47:07.984Z,1008.13
2019-01-18T02:48:08.016Z,1008.20
2019-01-18T02:49:08.027Z,1008.19
2019-01-18T02:50:08.046Z,1008.21
2019-01-18T02:51:08.070Z,1008.20
2019-01-18T02:52:08.091Z,1008.20
2019-01-18T02:53:08.117Z,1008.22
2019-01-18T02:54:08.130Z,1008.28
2019-01-18T02:55:08.151Z,1008.25
2019-01-18T02:56:08.170Z,1008.19
2019-01-18T02:57:08.193Z,1008.22
2019-01-18T02:58:08.226Z,1008.16
2019-01-18T02:59:08.235Z,1008.16
2019-01-18T03:00:08.256Z,1008.11
2019-01-18T03:01:08.278Z,1008.11
2019-01-18T03:02:08.298Z,1008.13
2019-01-18T03:03:08.323Z,1008.17
2019-01-18T03:04:08.353Z,1008.23
2019-01-18T03:05:08.361Z,1008.28
2019-01-18T03:06:08.380Z,1008.30
2019-01-18T03:07:08.401Z,1008.30
2019-01-18T03:08:08.423Z,1008.33
2019-01-18T03:09:08.447Z,1008.32
2019-01-18T03:10:08.479Z,1008.34
2019-01-18T03:11:08.486Z,1008.36
2019-01-18T03:12:08.507Z,1008.36
2019-01-18T03:13:08.525Z,1008.37
2019-01-18T03:14:08.554Z,1008.34
2019-01-18T03:15:08.569Z,1008.30
2019-01-18T03:16:08.591Z,1008.37
2019-01-18T03:17:08.630Z,1008.37
2019-01-18T03:18:08.634Z,1008.40
2019-01-18T03:19:08.665Z,1008.42
2019-01-18T03:20:08.671Z,1008.45
2019-01-18T03:21:08.694Z,1008.47
2019-01-18T03:22:08.717Z,1008.52
2019-01-18T03:23:08.737Z,1008.52
2019-01-18T03:24:08.765Z,1008.51
2019-01-18T03:25:08.779Z,1008.52
2019-01-18T03:26:08.800Z,1008.55
2019-01-18T03:27:08.820Z,1008.50
2019-01-18T03:28:08.841Z,1008.56
2019-01-18T03:29:08.876Z,1008.59
2019-01-18T03:30:18.198Z,1008.61
2019-01-18T03:31:08.905Z,1008.57
2019-01-18T03:32:08.924Z,1008.65
2019-01-18T03:33:08.945Z,1008.67
2019-01-18T03:34:08.972Z,1008.70
2019-01-18T03:35:08.986Z,1008.74
2019-01-18T03:36:09.009Z,1008.72
2019-01-18T03:37:09.031Z,1008.77
2019-01-18T03:38:09.052Z,1008.77
2019-01-18T03:39:09.071Z,1008.81
2019-01-18T03:40:09.093Z,1008.85
2019-01-18T03:41:09.113Z,1008.87
2019-01-18T03:42:09.135Z,1008.93
2019-01-18T03:43:09.167Z,1008.90
2019-01-18T03:44:09.176Z,1008.92
2019-01-18T03:45:09.198Z,1008.94
2019-01-18T03:46:09.218Z,1008.99
2019-01-18T03:47:09.236Z,1008.95
2019-01-18T03:48:09.261Z,1008.99
2019-01-18T03:49:09.278Z,1008.98
2019-01-18T03:50:09.303Z,1009.01
2019-01-18T03:51:09.319Z,1009.04
2019-01-18T03:52:09.341Z,1008.99
2019-01-18T03:53:09.364Z,1009.05
2019-01-18T03:54:09.385Z,1009.10
2019-01-18T03:55:09.406Z,1009.07
2019-01-18T03:56:09.427Z,1009.10
2019-01-18T03:57:09.448Z,1009.10
2019-01-18T03:58:09.470Z,1009.10
2019-01-18T03:59:09.485Z,1009.12
2019-01-18T04:00:09.510Z,1009.15
2019-01-18T04:01:09.531Z,1009.13
2019-01-18T04:02:09.550Z,1009.12
2019-01-18T04:03:09.572Z,1009.17
2019-01-18T04:04:09.591Z,1009.13
2019-01-18T04:05:09.612Z,1009.18
2019-01-18T04:06:09.634Z,1009.17
2019-01-18T04:07:09.653Z,1009.16
2019-01-18T04:08:09.683Z,1009.15
2019-01-18T04:09:10.045Z,1009.18
2019-01-18T04:10:09.716Z,1009.17
2019-01-18T04:11:09.736Z,1009.19
2019-01-18T04:12:09.760Z,1009.13
2019-01-18T04:13:09.780Z,1009.18
2019-01-18T04:14:09.802Z,1009.18
2019-01-18T04:15:09.820Z,1009.20
2019-01-18T04:16:09.843Z,1009.18
2019-01-18T04:17:09.859Z,1009.23
2019-01-18T04:18:09.884Z,1009.23
2019-01-18T04:19:09.901Z,1009.24
2019-01-18T04:20:09.924Z,1009.23
2019-01-18T04:21:09.948Z,1009.25
2019-01-18T04:22:09.966Z,1009.22
2019-01-18T04:23:09.985Z,1009.24
2019-01-18T04:24:10.005Z,1009.26
2019-01-18T04:25:10.031Z,1009.17
2019-01-18T04:26:10.048Z,1009.24
2019-01-18T04:27:10.069Z,1009.20
2019-01-18T04:28:10.089Z,1009.21
2019-01-18T04:29:10.110Z,1009.23
2019-01-18T04:30:10.129Z,1009.22
2019-01-18T04:31:10.252Z,1009.22
2019-01-18T04:32:10.168Z,1009.18
2019-01-18T04:33:10.189Z,1009.20
2019-01-18T04:34:10.213Z,1009.24
2019-01-18T04:35:10.234Z,1009.23
2019-01-18T04:36:10.254Z,1009.24
2019-01-18T04:37:10.275Z,1009.24
2019-01-18T04:38:10.296Z,1009.25
2019-01-18T04:39:10.315Z,1009.29
2019-01-18T04:40:10.334Z,1009.31
2019-01-18T04:41:10.357Z,1009.32
2019-01-18T04:42:10.376Z,1009.36
2019-01-18T04:43:10.397Z,1009.31
2019-01-18T04:44:10.418Z,1009.32
2019-01-18T04:45:10.446Z,1009.36
2019-01-18T04:46:10.462Z,1009.33
2019-01-18T04:47:10.478Z,1009.37
2019-01-18T04:48:10.499Z,1009.33
2019-01-18T04:49:10.521Z,1009.33
2019-01-18T04:50:10.543Z,1009.36
2019-01-18T04:51:10.561Z,1009.31
2019-01-18T04:52:10.579Z,1009.39
2019-01-18T04:53:10.600Z,1009.37
2019-01-18T04:54:10.621Z,1009.38
2019-01-18T04:55:10.645Z,1009.41
2019-01-18T04:56:10.664Z,1009.45
2019-01-18T04:57:10.685Z,1009.43
2019-01-18T04:58:10.703Z,1009.48
2019-01-18T04:59:10.726Z,1009.50
2019-01-18T05:00:10.743Z,1009.48
2019-01-18T05:01:10.765Z,1009.51
2019-01-18T05:02:10.790Z,1009.48
2019-01-18T05:03:10.813Z,1009.57
2019-01-18T05:04:10.824Z,1009.56
2019-01-18T05:05:10.849Z,1009.54
2019-01-18T05:06:10.869Z,1009.55
2019-01-18T05:07:10.889Z,1009.55
2019-01-18T05:08:10.907Z,1009.59
2019-01-18T05:09:10.927Z,1009.61
2019-01-18T05:10:10.952Z,1009.62
2019-01-18T05:11:10.969Z,1009.68
2019-01-18T05:12:10.995Z,1009.61
2019-01-18T05:13:11.009Z,1009.65
2019-01-18T05:14:11.033Z,1009.70
2019-01-18T05:15:11.048Z,1009.71
2019-01-18T05:16:11.073Z,1009.78
2019-01-18T05:17:11.094Z,1009.83
2019-01-18T05:18:11.111Z,1009.85
2019-01-18T05:19:11.137Z,1009.84
2019-01-18T05:20:11.151Z,1009.88
2019-01-18T05:21:11.171Z,1009.96
2019-01-18T05:22:11.194Z,1009.98
2019-01-18T05:23:11.212Z,1009.99
2019-01-18T05:24:11.235Z,1010.00
2019-01-18T05:25:11.257Z,1010.05
2019-01-18T05:26:11.277Z,1010.04
2019-01-18T05:27:11.296Z,1010.06
2019-01-18T05:28:11.321Z,1010.09
2019-01-18T05:29:11.337Z,1010.08
2019-01-18T05:30:11.357Z,1010.11
2019-01-18T05:31:11.381Z,1010.17
2019-01-18T05:32:11.406Z,1010.15
2019-01-18T05:33:11.416Z,1010.17
2019-01-18T05:34:11.436Z,1010.20
2019-01-18T05:35:11.460Z,1010.21
2019-01-18T05:36:11.477Z,1010.23
2019-01-18T05:37:11.502Z,1010.22
2019-01-18T05:38:11.517Z,1010.22
2019-01-18T05:39:11.540Z,1010.25
2019-01-18T05:40:11.556Z,1010.25
2019-01-18T05:41:11.580Z,1010.29
2019-01-18T05:42:11.606Z,1010.27
2019-01-18T05:43:11.620Z,1010.34
2019-01-18T05:44:11.638Z,1010.34
2019-01-18T05:45:11.676Z,1010.35
2019-01-18T05:46:11.679Z,1010.34
2019-01-18T05:47:11.699Z,1010.38
2019-01-18T05:48:11.720Z,1010.41
2019-01-18T05:49:11.740Z,1010.36
2019-01-18T05:50:11.762Z,1010.37
2019-01-18T05:51:11.781Z,1010.38
2019-01-18T05:52:11.809Z,1010.35
2019-01-18T05:53:11.824Z,1010.33
2019-01-18T05:54:11.844Z,1010.38
2019-01-18T05:55:11.860Z,1010.42
2019-01-18T05:56:11.881Z,1010.46
2019-01-18T05:57:11.921Z,1010.43
2019-01-18T05:58:11.925Z,1010.46
2019-01-18T05:59:11.944Z,1010.44
2019-01-18T06:00:11.964Z,1010.43
2019-01-18T06:01:11.986Z,1010.46
2019-01-18T06:02:12.005Z,1010.42
2019-01-18T06:03:12.031Z,1010.46
2019-01-18T06:04:12.046Z,1010.45
2019-01-18T06:05:12.066Z,1010.49
2019-01-18T06:06:12.084Z,1010.49
2019-01-18T06:07:12.106Z,1010.52
2019-01-18T06:08:12.126Z,1010.55
2019-01-18T06:09:12.145Z,1010.54
2019-01-18T06:10:13.546Z,1010.52
2019-01-18T06:11:12.184Z,1010.56
2019-01-18T06:12:12.208Z,1010.61
2019-01-18T06:13:12.227Z,1010.64
2019-01-18T06:14:12.245Z,1010.68
2019-01-18T06:15:12.265Z,1010.63
2019-01-18T06:16:12.288Z,1010.66
2019-01-18T06:17:12.306Z,1010.66
2019-01-18T06:18:12.328Z,1010.68
2019-01-18T06:19:12.347Z,1010.69
2019-01-18T06:20:12.366Z,1010.67
2019-01-18T06:21:12.387Z,1010.66
2019-01-18T06:22:12.409Z,1010.67
2019-01-18T06:23:12.428Z,1010.68
2019-01-18T06:24:12.450Z,1010.73
2019-01-18T06:25:12.480Z,1010.72
2019-01-18T06:26:12.488Z,1010.74
2019-01-18T06:27:12.509Z,1010.78
2019-01-18T06:28:12.629Z,1010.77
2019-01-18T06:29:12.547Z,1010.77
2019-01-18T06:30:12.568Z,1010.78
2019-01-18T06:31:12.587Z,1010.80
2019-01-18T06:32:12.609Z,1010.76
2019-01-18T06:33:12.627Z,1010.73
2019-01-18T06:34:12.653Z,1010.79
2019-01-18T06:35:12.673Z,1010.77
2019-01-18T06:36:12.690Z,1010.83
2019-01-18T06:37:12.711Z,1010.80
2019-01-18T06:38:12.730Z,1010.82
2019-01-18T06:39:12.749Z,1010.83
2019-01-18T06:40:12.768Z,1010.81
2019-01-18T06:41:12.789Z,1010.83
2019-01-18T06:42:12.811Z,1010.85
2019-01-18T06:43:12.827Z,1010.88
2019-01-18T06:44:12.848Z,1010.90
2019-01-18T06:45:12.872Z,1010.91
2019-01-18T06:46:12.888Z,1010.97
2019-01-18T06:47:12.910Z,1010.94
2019-01-18T06:48:12.928Z,1010.89
2019-01-18T06:49:12.951Z,1011.00
2019-01-18T06:50:12.969Z,1011.01
2019-01-18T06:51:13.014Z,1011.08
2019-01-18T06:52:13.011Z,1011.07
2019-01-18T06:53:13.036Z,1011.11
2019-01-18T06:54:13.053Z,1011.11
2019-01-18T06:55:13.071Z,1011.12
2019-01-18T06:56:13.090Z,1011.12
2019-01-18T06:57:13.110Z,1011.12
2019-01-18T06:58:13.131Z,1011.14
2019-01-18T06:59:13.158Z,1011.16
2019-01-18T07:00:13.172Z,1011.19
2019-01-18T07:01:13.191Z,1011.20
2019-01-18T07:02:13.212Z,1011.18
2019-01-18T07:03:13.229Z,1011.20
2019-01-18T07:04:13.249Z,1011.21
2019-01-18T07:05:13.271Z,1011.22
2019-01-18T07:06:13.291Z,1011.26
2019-01-18T07:07:13.312Z,1011.30
2019-01-18T07:08:13.328Z,1011.30
2019-01-18T07:09:13.350Z,1011.28
2019-01-18T07:10:13.370Z,1011.29
2019-01-18T07:11:13.392Z,1011.34
2019-01-18T07:12:13.411Z,1011.33
2019-01-18T07:13:13.433Z,1011.35
2019-01-18T07:14:13.453Z,1011.39
2019-01-18T07:15:13.471Z,1011.43
2019-01-18T07:16:13.491Z,1011.37
2019-01-18T07:17:13.511Z,1011.41
2019-01-18T07:18:13.532Z,1011.47
2019-01-18T07:19:13.551Z,1011.45
2019-01-18T07:20:13.569Z,1011.47
2019-01-18T07:21:13.590Z,1011.48
2019-01-18T07:22:13.611Z,1011.50
2019-01-18T07:23:13.629Z,1011.54
2019-01-18T07:24:13.651Z,1011.54
2019-01-18T07:25:13.671Z,1011.57
2019-01-18T07:26:13.691Z,1011.55
2019-01-18T07:27:13.711Z,1011.58
2019-01-18T07:28:13.729Z,1011.57
2019-01-18T07:29:13.752Z,1011.59
2019-01-18T07:30:13.774Z,1011.55
2019-01-18T07:31:15.139Z,1011.63
2019-01-18T07:32:13.808Z,1011.66
2019-01-18T07:33:13.829Z,1011.62
2019-01-18T07:34:13.849Z,1011.64
2019-01-18T07:35:13.868Z,1011.65
2019-01-18T07:36:13.890Z,1011.65
2019-01-18T07:37:13.908Z,1011.68
2019-01-18T07:38:13.931Z,1011.71
2019-01-18T07:39:13.950Z,1011.73
2019-01-18T07:40:13.970Z,1011.70
2019-01-18T07:41:13.992Z,1011.71
2019-01-18T07:42:14.007Z,1011.76
2019-01-18T07:43:14.029Z,1011.81
2019-01-18T07:44:14.050Z,1011.81
2019-01-18T07:45:14.076Z,1011.77
2019-01-18T07:46:14.088Z,1011.82
2019-01-18T07:47:14.108Z,1011.83
2019-01-18T07:48:14.131Z,1011.85
2019-01-18T07:49:14.150Z,1011.85
2019-01-18T07:50:19.938Z,1011.91
2019-01-18T07:51:14.190Z,1011.87
2019-01-18T07:52:14.208Z,1011.92
2019-01-18T07:53:14.230Z,1011.89
2019-01-18T07:54:14.248Z,1011.94
2019-01-18T07:55:14.268Z,1011.91
2019-01-18T07:56:14.288Z,1011.94
2019-01-18T07:57:14.311Z,1012.02
2019-01-18T07:58:14.331Z,1011.98
2019-01-18T07:59:14.351Z,1012.04
2019-01-18T08:00:14.369Z,1012.01
2019-01-18T08:01:14.588Z,1012.02
2019-01-18T08:02:14.409Z,1012.04
2019-01-18T08:03:14.430Z,1012.04
2019-01-18T08:04:14.453Z,1012.08
2019-01-18T08:05:14.472Z,1012.05
2019-01-18T08:06:14.493Z,1012.08
2019-01-18T08:07:14.509Z,1012.07
2019-01-18T08:08:14.530Z,1012.09
2019-01-18T08:09:14.550Z,1012.10
2019-01-18T08:10:14.573Z,1012.15
2019-01-18T08:11:14.590Z,1012.13
2019-01-18T08:12:14.610Z,1012.10
2019-01-18T08:13:14.636Z,1012.15
2019-01-18T08:14:14.653Z,1012.10
2019-01-18T08:15:14.673Z,1012.17
2019-01-18T08:16:14.691Z,1012.14
2019-01-18T08:17:14.714Z,1012.21
2019-01-18T08:18:14.733Z,1012.20
2019-01-18T08:19:14.751Z,1012.21
2019-01-18T08:20:14.772Z,1012.26
2019-01-18T08:21:14.796Z,1012.24
2019-01-18T08:22:14.813Z,1012.30
2019-01-18T08:23:14.834Z,1012.28
2019-01-18T08:24:14.855Z,1012.35
2019-01-18T08:25:14.874Z,1012.31
2019-01-18T08:26:14.931Z,1012.31
2019-01-18T08:27:14.916Z,1012.27
2019-01-18T08:28:14.937Z,1012.31
2019-01-18T08:29:14.957Z,1012.25
2019-01-18T08:30:14.975Z,1012.25
2019-01-18T08:31:14.994Z,1012.27
2019-01-18T08:32:15.017Z,1012.25
2019-01-18T08:33:15.037Z,1012.31
2019-01-18T08:34:15.060Z,1012.30
2019-01-18T08:35:15.076Z,1012.30
2019-01-18T08:36:15.097Z,1012.31
2019-01-18T08:37:15.119Z,1012.33
2019-01-18T08:38:15.144Z,1012.38
2019-01-18T08:39:15.160Z,1012.39
2019-01-18T08:40:15.180Z,1012.38
2019-01-18T08:41:15.200Z,1012.39
2019-01-18T08:42:15.219Z,1012.38
2019-01-18T08:43:15.304Z,1012.43
2019-01-18T08:44:15.262Z,1012.45
2019-01-18T08:45:15.282Z,1012.43
2019-01-18T08:46:15.302Z,1012.41
2019-01-18T08:47:15.320Z,1012.49
2019-01-18T08:48:15.343Z,1012.42
2019-01-18T08:49:15.361Z,1012.47
2019-01-18T08:50:15.384Z,1012.46
2019-01-18T08:51:15.404Z,1012.43
2019-01-18T08:52:15.425Z,1012.43
2019-01-18T08:53:15.446Z,1012.47
2019-01-18T08:54:15.466Z,1012.48
2019-01-18T08:55:15.487Z,1012.46
2019-01-18T08:56:16.719Z,1012.43
2019-01-18T08:57:15.526Z,1012.46
2019-01-18T08:58:15.547Z,1012.45
2019-01-18T08:59:15.568Z,1012.51
2019-01-18T09:00:15.592Z,1012.50
2019-01-18T09:01:15.610Z,1012.55
2019-01-18T09:02:15.630Z,1012.49
2019-01-18T09:03:15.651Z,1012.48
2019-01-18T09:04:15.670Z,1012.54
2019-01-18T09:05:15.691Z,1012.59
2019-01-18T09:06:15.716Z,1012.55
2019-01-18T09:07:15.732Z,1012.60
2019-01-18T09:08:15.753Z,1012.61
2019-01-18T09:09:15.772Z,1012.67
2019-01-18T09:10:15.793Z,1012.65
2019-01-18T09:11:15.813Z,1012.67
2019-01-18T09:12:15.836Z,1012.69
2019-01-18T09:13:15.857Z,1012.70
2019-01-18T09:14:19.426Z,1012.70
2019-01-18T09:15:15.897Z,1012.71
2019-01-18T09:16:15.916Z,1012.78
2019-01-18T09:17:15.939Z,1013.02
2019-01-18T09:18:15.961Z,1013.05
2019-01-18T09:19:15.979Z,1013.04
2019-01-18T09:20:16.000Z,1012.97
2019-01-18T09:21:16.022Z,1012.95
2019-01-18T09:22:16.045Z,1013.02
2019-01-18T09:23:16.069Z,1012.96
2019-01-18T09:24:16.091Z,1012.95
2019-01-18T09:25:16.114Z,1013.03
2019-01-18T09:26:16.139Z,1012.99
2019-01-18T09:27:16.159Z,1013.02
2019-01-18T09:28:16.187Z,1013.06
2019-01-18T09:29:16.210Z,1013.04
2019-01-18T09:30:16.235Z,1013.05
2019-01-18T09:31:16.260Z,1013.05
2019-01-18T09:32:16.283Z,1013.10
2019-01-18T09:33:16.311Z,1013.10
2019-01-18T09:34:16.337Z,1013.10
2019-01-18T09:35:16.369Z,1013.10
2019-01-18T09:36:16.388Z,1013.04
2019-01-18T09:37:16.416Z,1013.12
2019-01-18T09:38:17.980Z,1013.14
2019-01-18T09:39:16.472Z,1013.16
2019-01-18T09:40:16.499Z,1013.18
2019-01-18T09:41:16.529Z,1013.11
2019-01-18T09:42:16.556Z,1013.09
2019-01-18T09:43:16.586Z,1013.12
2019-01-18T09:44:16.612Z,1013.15
2019-01-18T09:45:16.643Z,1013.21
2019-01-18T09:46:16.675Z,1013.15
2019-01-18T09:47:16.701Z,1013.17
2019-01-18T09:48:16.731Z,1013.17
2019-01-18T09:49:16.761Z,1013.18
2019-01-18T09:50:16.791Z,1013.10
2019-01-18T09:51:16.821Z,1013.12
2019-01-18T09:52:16.849Z,1013.17
2019-01-18T09:53:16.878Z,1013.15
2019-01-18T09:54:16.910Z,1013.17
2019-01-18T09:57:17.000Z,1013.22
2019-01-18T09:58:17.031Z,1013.20
2019-01-18T09:59:17.058Z,1013.21
2019-01-18T10:00:18.306Z,1013.23
2019-01-18T10:01:17.119Z,1013.16
2019-01-18T10:02:17.151Z,1013.17
2019-01-18T10:03:17.185Z,1013.22
2019-01-18T10:04:17.211Z,1013.21
2019-01-18T10:05:17.243Z,1013.15
2019-01-18T10:06:17.278Z,1013.17
2019-01-18T10:07:17.305Z,1013.17
2019-01-18T10:08:17.338Z,1013.18
2019-01-18T10:09:17.367Z,1013.19
2019-01-18T10:10:17.395Z,1013.23
2019-01-18T10:11:17.425Z,1013.29
2019-01-18T10:12:17.457Z,1013.23
2019-01-18T10:13:17.487Z,1013.15
2019-01-18T10:14:17.524Z,1012.92
2019-01-18T10:15:17.551Z,1012.70
2019-01-18T10:16:17.579Z,1012.55
2019-01-18T10:17:17.614Z,1012.55
2019-01-18T10:18:17.641Z,1012.57
2019-01-18T10:19:17.670Z,1012.52
2019-01-18T10:20:17.702Z,1012.56
2019-01-18T10:21:17.732Z,1012.52
2019-01-18T10:22:17.762Z,1012.50
2019-01-18T10:23:17.790Z,1012.51
2019-01-18T10:24:17.819Z,1012.54
2019-01-18T10:25:17.848Z,1012.50
2019-01-18T10:26:17.879Z,1012.47
2019-01-18T10:27:23.784Z,1012.51
2019-01-18T10:28:17.930Z,1012.49
2019-01-18T10:29:17.958Z,1012.52
2019-01-18T10:30:17.984Z,1012.54
2019-01-18T10:31:18.011Z,1012.46
2019-01-18T10:32:18.038Z,1012.52
2019-01-18T10:33:18.069Z,1012.51
2019-01-18T10:34:18.093Z,1012.55
2019-01-18T10:35:18.117Z,1012.51
2019-01-18T10:36:18.143Z,1012.49
2019-01-18T10:37:18.172Z,1012.57
2019-01-18T10:38:18.195Z,1012.50
2019-01-18T10:39:18.222Z,1012.52
2019-01-18T10:40:18.247Z,1012.58
2019-01-18T10:41:18.271Z,1012.56
2019-01-18T10:42:18.301Z,1012.59
2019-01-18T10:43:18.321Z,1012.58
2019-01-18T10:44:18.344Z,1012.62
2019-01-18T10:45:18.371Z,1012.59
2019-01-18T10:46:18.396Z,1012.62
2019-01-18T10:47:18.418Z,1012.60
2019-01-18T10:48:18.442Z,1012.59
2019-01-18T10:49:18.467Z,1012.61
2019-01-18T10:50:18.491Z,1012.63
2019-01-18T10:51:18.512Z,1012.67
2019-01-18T10:52:18.537Z,1012.71
2019-01-18T10:53:18.561Z,1012.69
2019-01-18T10:54:18.583Z,1012.65
2019-01-18T10:55:18.605Z,1012.70
2019-01-18T10:56:18.631Z,1012.67
2019-01-18T10:57:18.652Z,1012.71
2019-01-18T10:58:18.677Z,1012.71
2019-01-18T10:59:18.698Z,1012.71
2019-01-18T11:00:18.724Z,1012.71
2019-01-18T11:01:18.746Z,1012.75
2019-01-18T11:02:18.770Z,1012.78
2019-01-18T11:03:18.790Z,1012.70
2019-01-18T11:04:18.813Z,1012.72
2019-01-18T11:05:18.838Z,1012.78
2019-01-18T11:06:18.862Z,1012.74
2019-01-18T11:07:18.887Z,1012.80
2019-01-18T11:08:18.907Z,1012.80
2019-01-18T11:09:18.929Z,1012.78
2019-01-18T11:10:18.951Z,1012.82
2019-01-18T11:11:18.975Z,1012.88
2019-01-18T11:12:18.995Z,1012.78
2019-01-18T11:13:19.018Z,1012.89
2019-01-18T11:14:19.041Z,1012.84
2019-01-18T11:15:19.064Z,1012.85
2019-01-18T11:16:19.088Z,1012.89
2019-01-18T11:17:19.110Z,1012.94
2019-01-18T11:18:19.134Z,1012.93
2019-01-18T11:19:19.152Z,1012.90
2019-01-18T11:20:19.179Z,1012.89
2019-01-18T11:21:19.201Z,1012.93
2019-01-18T11:22:19.222Z,1012.91
2019-01-18T11:23:19.244Z,1012.91
2019-01-18T11:24:19.267Z,1012.91
2019-01-18T11:25:19.287Z,1012.94
2019-01-18T11:26:19.312Z,1012.91
2019-01-18T11:27:19.334Z,1012.97
2019-01-18T11:28:19.357Z,1013.02
2019-01-18T11:29:19.377Z,1012.91
2019-01-18T11:30:19.401Z,1012.97
2019-01-18T11:31:23.279Z,1012.98
2019-01-18T11:32:19.446Z,1012.94
2019-01-18T11:33:19.466Z,1013.01
2019-01-18T11:34:19.491Z,1012.96
2019-01-18T11:35:19.510Z,1012.96
2019-01-18T11:36:19.532Z,1012.92
2019-01-18T11:37:19.558Z,1012.94
2019-01-18T11:38:19.578Z,1012.96
2019-01-18T11:39:19.603Z,1012.89
2019-01-18T11:40:19.623Z,1012.89
2019-01-18T11:41:19.645Z,1012.88
2019-01-18T11:42:19.671Z,1012.90
2019-01-18T11:43:19.690Z,1012.92
2019-01-18T11:44:19.714Z,1012.95
2019-01-18T11:45:19.736Z,1012.99
2019-01-18T11:46:19.757Z,1012.97
2019-01-18T11:47:19.782Z,1012.93
2019-01-18T11:48:19.803Z,1013.02
2019-01-18T11:49:19.828Z,1013.07
2019-01-18T11:50:19.852Z,1013.05
2019-01-18T11:51:19.872Z,1013.12
2019-01-18T11:52:19.897Z,1013.12
2019-01-18T11:53:19.922Z,1013.15
2019-01-18T11:54:19.943Z,1013.12
2019-01-18T11:55:19.969Z,1013.24
2019-01-18T11:56:19.990Z,1013.19
2019-01-18T11:57:20.015Z,1013.06
2019-01-18T11:58:20.042Z,1012.80
2019-01-18T11:59:20.066Z,1012.68
2019-01-18T12:00:20.088Z,1012.68
2019-01-18T12:01:20.114Z,1012.73
2019-01-18T12:02:22.191Z,1012.73
2019-01-18T12:03:20.163Z,1012.89
2019-01-18T12:04:20.188Z,1013.16
2019-01-18T12:05:20.215Z,1013.42
2019-01-18T12:06:20.239Z,1013.41
2019-01-18T12:07:20.264Z,1013.46